createdAt,value
2018-11-05T00:01:34.686Z,14.33
2018-11-05T00:04:03.498Z,14.43
2018-11-05T00:06:32.741Z,13.62
2018-11-05T00:09:01.526Z,14.03
2018-11-05T00:11:30.730Z,14.28
2018-11-05T00:13:59.762Z,14.05
2018-11-05T00:16:28.542Z,13.18
2018-11-05T00:18:57.346Z,12.98
2018-11-05T00:21:26.465Z,14.23
2018-11-05T00:24:01.862Z,13.50
2018-11-05T00:26:30.626Z,13.13
2018-11-05T00:28:59.414Z,13.30
2018-11-05T00:31:28.130Z,12.03
2018-11-05T00:33:56.917Z,13.28
2018-11-05T00:36:26.001Z,13.30
2018-11-05T00:38:54.745Z,13.70
2018-11-05T00:41:23.885Z,13.15
2018-11-05T00:43:52.645Z,13.10
2018-11-05T00:46:21.825Z,13.38
2018-11-05T00:48:50.509Z,14.05
2018-11-05T00:51:19.270Z,12.90
2018-11-05T00:53:48.321Z,12.80
2018-11-05T00:56:17.053Z,13.83
2018-11-05T00:58:45.837Z,12.55
2018-11-05T01:01:14.641Z,13.13
2018-11-05T01:03:43.861Z,13.58
2018-11-05T01:06:13.137Z,13.48
2018-11-05T01:08:42.201Z,13.48
2018-11-05T01:11:11.005Z,13.08
2018-11-05T01:13:40.397Z,13.15
2018-11-05T01:16:09.545Z,13.35
2018-11-05T01:18:38.333Z,13.60
2018-11-05T01:21:07.458Z,13.30
2018-11-05T01:23:36.530Z,14.58
2018-11-05T01:26:05.393Z,14.13
2018-11-05T01:28:34.565Z,14.43
2018-11-05T01:31:03.817Z,14.60
2018-11-05T01:33:32.633Z,13.98
2018-11-05T01:36:01.393Z,14.38
2018-11-05T01:38:30.205Z,13.60
2018-11-05T01:40:58.945Z,13.90
2018-11-05T01:43:27.705Z,14.55
2018-11-05T01:45:56.471Z,13.68
2018-11-05T01:48:25.230Z,14.13
2018-11-05T01:50:54.008Z,15.58
2018-11-05T01:53:23.241Z,14.30
2018-11-05T01:55:52.030Z,13.38
2018-11-05T01:58:20.680Z,12.90
2018-11-05T02:00:49.265Z,14.73
2018-11-05T02:03:17.896Z,14.18
2018-11-05T02:05:46.520Z,14.43
2018-11-05T02:08:15.768Z,14.73
2018-11-05T02:10:44.433Z,14.18
2018-11-05T02:13:13.119Z,13.40
2018-11-05T02:16:12.596Z,13.80
2018-11-05T02:18:41.248Z,13.25
2018-11-05T02:21:09.884Z,14.10
2018-11-05T02:23:38.492Z,14.07
2018-11-05T02:26:07.104Z,14.10
2018-11-05T02:28:35.660Z,13.85
2018-11-05T02:31:04.838Z,14.35
2018-11-05T02:33:34.124Z,13.22
2018-11-05T02:36:02.673Z,15.13
2018-11-05T02:38:31.284Z,13.35
2018-11-05T02:41:00.036Z,13.55
2018-11-05T02:43:28.696Z,13.65
2018-11-05T02:45:57.292Z,14.15
2018-11-05T02:48:26.584Z,13.53
2018-11-05T02:50:55.444Z,14.03
2018-11-05T02:53:24.235Z,15.30
2018-11-05T02:55:53.015Z,14.58
2018-11-05T02:58:21.804Z,14.73
2018-11-05T03:00:50.692Z,14.30
2018-11-05T03:03:19.295Z,14.70
2018-11-05T03:05:48.120Z,14.18
2018-11-05T03:08:16.612Z,14.30
2018-11-05T03:10:45.207Z,14.18
2018-11-05T03:13:13.668Z,14.38
2018-11-05T03:15:42.264Z,14.93
2018-11-05T03:18:11.332Z,12.95
2018-11-05T03:20:39.840Z,13.72
2018-11-05T03:23:08.338Z,14.05
2018-11-05T03:25:36.915Z,13.90
2018-11-05T03:28:05.971Z,13.72
2018-11-05T03:30:34.792Z,13.35
2018-11-05T03:33:03.292Z,14.18
2018-11-05T03:35:31.829Z,14.45
2018-11-05T03:38:00.333Z,14.00
2018-11-05T03:40:28.879Z,14.78
2018-11-05T03:42:59.212Z,13.83
2018-11-05T03:45:28.449Z,14.98
2018-11-05T03:47:57.077Z,13.70
2018-11-05T03:50:25.584Z,13.72
2018-11-05T03:52:54.104Z,14.05
2018-11-05T03:55:22.885Z,14.43
2018-11-05T03:57:51.376Z,14.13
2018-11-05T04:00:19.915Z,13.43
2018-11-05T04:02:48.372Z,14.75
2018-11-05T04:05:16.852Z,15.37
2018-11-05T04:07:45.370Z,14.73
2018-11-05T04:10:14.578Z,15.60
2018-11-05T04:12:43.047Z,14.40
2018-11-05T04:15:11.791Z,14.55
2018-11-05T04:17:40.387Z,15.15
2018-11-05T04:20:10.759Z,13.85
2018-11-05T04:22:39.443Z,14.18
2018-11-05T04:25:08.719Z,14.50
2018-11-05T04:27:37.563Z,13.70
2018-11-05T04:30:08.452Z,13.43
2018-11-05T04:32:36.915Z,14.90
2018-11-05T04:35:05.721Z,13.58
2018-11-05T04:37:34.519Z,14.70
2018-11-05T04:40:03.299Z,14.75
2018-11-05T04:42:32.470Z,13.93
2018-11-05T04:45:01.104Z,14.83
2018-11-05T04:47:29.771Z,14.75
2018-11-05T04:49:58.288Z,15.75
2018-11-05T04:52:27.339Z,13.72
2018-11-05T04:54:56.391Z,13.55
2018-11-05T04:57:25.787Z,15.43
2018-11-05T04:59:54.276Z,15.13
2018-11-05T05:02:22.932Z,15.08
2018-11-05T05:04:51.787Z,14.40
2018-11-05T05:07:20.779Z,14.05
2018-11-05T05:09:49.648Z,15.10
2018-11-05T05:12:18.287Z,13.32
2018-11-05T05:14:46.875Z,13.68
2018-11-05T05:17:15.467Z,15.30
2018-11-05T05:19:43.983Z,14.38
2018-11-05T05:22:12.673Z,14.50
2018-11-05T05:24:41.563Z,14.38
2018-11-05T05:27:10.531Z,14.30
2018-11-05T05:29:39.011Z,14.47
2018-11-05T05:32:07.575Z,13.45
2018-11-05T05:34:36.183Z,14.40
2018-11-05T05:37:05.439Z,14.90
2018-11-05T05:39:34.167Z,15.13
2018-11-05T05:42:02.875Z,12.98
2018-11-05T05:44:31.778Z,13.25
2018-11-05T05:47:00.311Z,13.15
2018-11-05T05:49:28.835Z,14.35
2018-11-05T05:51:57.627Z,14.63
2018-11-05T05:54:26.407Z,14.80
2018-11-05T05:56:55.023Z,14.80
2018-11-05T05:59:23.640Z,14.13
2018-11-05T06:01:52.235Z,15.15
2018-11-05T06:05:23.586Z,15.40
2018-11-05T06:07:52.309Z,14.65
2018-11-05T06:10:21.234Z,15.20
2018-11-05T06:12:50.430Z,15.60
2018-11-05T06:15:19.015Z,14.53
2018-11-05T06:17:48.586Z,14.10
2018-11-05T06:20:18.375Z,15.95
2018-11-05T06:22:47.860Z,15.30
2018-11-05T06:25:16.851Z,14.53
2018-11-05T06:27:51.970Z,15.30
2018-11-05T06:30:21.486Z,15.53
2018-11-05T06:32:51.023Z,15.13
2018-11-05T06:35:20.217Z,15.38
2018-11-05T06:37:49.451Z,15.95
2018-11-05T06:40:19.226Z,14.35
2018-11-05T06:42:47.894Z,14.63
2018-11-05T06:45:18.533Z,15.03
2018-11-05T06:47:47.743Z,14.00
2018-11-05T06:50:18.279Z,14.90
2018-11-05T06:52:47.132Z,14.73
2018-11-05T06:55:16.059Z,15.83
2018-11-05T06:57:44.800Z,16.60
2018-11-05T07:00:17.037Z,16.50
2018-11-05T07:02:45.753Z,16.57
2018-11-05T07:05:14.641Z,17.10
2018-11-05T07:07:43.533Z,16.62
2018-11-05T07:10:13.066Z,17.12
2018-11-05T07:12:42.574Z,21.85
2018-11-05T07:15:12.925Z,23.97
2018-11-05T07:17:41.977Z,29.48
2018-11-05T07:20:12.954Z,28.62
2018-11-05T07:22:41.541Z,29.05
2018-11-05T07:25:11.436Z,27.82
2018-11-05T07:27:40.095Z,21.70
2018-11-05T07:30:13.398Z,17.85
2018-11-05T07:32:42.354Z,20.85
2018-11-05T07:35:12.445Z,26.42
2018-11-05T07:37:41.194Z,23.77
2018-11-05T07:40:11.318Z,20.57
2018-11-05T07:42:40.626Z,18.80
2018-11-05T07:45:12.978Z,18.02
2018-11-05T07:47:42.025Z,16.65
2018-11-05T07:50:12.025Z,16.40
2018-11-05T07:52:40.771Z,17.40
2018-11-05T07:55:11.262Z,17.85
2018-11-05T07:57:40.898Z,18.67
2018-11-05T08:00:17.190Z,18.62
2018-11-05T08:02:46.606Z,16.73
2018-11-05T08:05:17.065Z,17.57
2018-11-05T08:07:45.973Z,16.50
2018-11-05T08:10:14.693Z,16.30
2018-11-05T08:12:43.512Z,17.10
2018-11-05T08:15:17.228Z,16.20
2018-11-05T08:17:47.469Z,16.75
2018-11-05T08:20:16.465Z,15.20
2018-11-05T08:22:45.287Z,16.55
2018-11-05T08:25:14.713Z,16.15
2018-11-05T08:27:43.505Z,18.57
2018-11-05T08:30:15.816Z,16.37
2018-11-05T08:32:44.642Z,18.15
2018-11-05T08:35:13.848Z,17.23
2018-11-05T08:37:43.416Z,15.78
2018-11-05T08:40:14.806Z,17.27
2018-11-05T08:42:44.236Z,16.05
2018-11-05T08:45:13.956Z,16.00
2018-11-05T08:47:42.810Z,16.95
2018-11-05T08:50:13.425Z,16.62
2018-11-05T08:52:42.080Z,16.27
2018-11-05T08:55:13.319Z,16.70
2018-11-05T08:57:42.622Z,16.45
2018-11-05T09:00:20.420Z,17.43
2018-11-05T09:02:49.627Z,17.73
2018-11-05T09:05:18.759Z,16.70
2018-11-05T09:07:48.055Z,17.25
2018-11-05T09:10:16.914Z,17.23
2018-11-05T09:12:45.536Z,16.75
2018-11-05T09:15:15.556Z,18.17
2018-11-05T09:17:45.184Z,15.40
2018-11-05T09:20:15.186Z,15.03
2018-11-05T09:22:43.980Z,15.90
2018-11-05T09:25:13.372Z,15.70
2018-11-05T09:27:42.122Z,15.63
2018-11-05T09:30:17.001Z,15.93
2018-11-05T09:32:46.406Z,15.08
2018-11-05T09:35:15.269Z,15.58
2018-11-05T09:37:44.050Z,16.55
2018-11-05T09:40:15.418Z,16.40
2018-11-05T09:42:44.707Z,15.93
2018-11-05T09:45:16.846Z,16.12
2018-11-05T09:47:46.344Z,16.07
2018-11-05T09:50:15.430Z,17.17
2018-11-05T09:52:44.219Z,17.45
2018-11-05T09:55:13.720Z,16.35
2018-11-05T09:57:42.895Z,14.73
2018-11-05T10:00:12.984Z,15.35
2018-11-05T10:02:47.126Z,14.65
2018-11-05T10:05:16.209Z,15.00
2018-11-05T10:07:45.224Z,14.68
2018-11-05T10:11:16.778Z,16.13
2018-11-05T10:13:45.472Z,15.58
2018-11-05T10:16:14.208Z,15.72
2018-11-05T10:18:43.471Z,14.30
2018-11-05T10:21:12.831Z,15.98
2018-11-05T10:23:41.911Z,15.88
2018-11-05T10:26:10.638Z,15.88
2018-11-05T10:28:39.443Z,16.65
2018-11-05T10:31:08.411Z,15.53
2018-11-05T10:33:37.634Z,15.70
2018-11-05T10:36:06.199Z,14.68
2018-11-05T10:38:34.926Z,15.50
2018-11-05T10:41:03.675Z,14.58
2018-11-05T10:43:32.423Z,14.50
2018-11-05T10:46:01.269Z,15.20
2018-11-05T10:48:29.938Z,16.07
2018-11-05T10:50:58.992Z,14.45
2018-11-05T10:53:27.693Z,16.20
2018-11-05T10:55:56.450Z,15.13
2018-11-05T10:58:25.131Z,16.10
2018-11-05T11:00:59.323Z,15.75
2018-11-05T11:03:33.943Z,14.67
2018-11-05T11:06:03.631Z,15.65
2018-11-05T11:08:32.438Z,15.40
2018-11-05T11:11:01.143Z,15.70
2018-11-05T11:13:29.879Z,15.55
2018-11-05T11:15:58.594Z,17.07
2018-11-05T11:18:27.359Z,17.52
2018-11-05T11:20:56.082Z,16.62
2018-11-05T11:23:24.791Z,18.00
2018-11-05T11:25:53.527Z,17.07
2018-11-05T11:28:22.427Z,18.15
2018-11-05T11:30:51.647Z,17.15
2018-11-05T11:33:20.453Z,17.25
2018-11-05T11:35:49.434Z,16.95
2018-11-05T11:38:18.111Z,18.67
2018-11-05T11:40:46.782Z,17.87
2018-11-05T11:43:16.058Z,18.15
2018-11-05T11:45:44.787Z,18.62
2018-11-05T11:48:13.515Z,19.25
2018-11-05T11:50:42.626Z,19.62
2018-11-05T11:53:11.559Z,20.13
2018-11-05T11:55:40.219Z,19.40
2018-11-05T11:58:08.956Z,19.57
2018-11-05T12:00:37.780Z,17.52
2018-11-05T12:03:06.617Z,17.30
2018-11-05T12:05:35.218Z,18.32
2018-11-05T12:08:06.066Z,18.23
2018-11-05T12:10:35.214Z,18.65
2018-11-05T12:13:03.815Z,17.40
2018-11-05T12:15:32.490Z,18.60
2018-11-05T12:18:01.994Z,18.05
2018-11-05T12:20:31.035Z,16.65
2018-11-05T12:22:59.937Z,19.90
2018-11-05T12:25:28.611Z,17.05
2018-11-05T12:27:57.459Z,18.07
2018-11-05T12:30:26.042Z,16.55
2018-11-05T12:32:55.180Z,17.32
2018-11-05T12:35:23.978Z,17.20
2018-11-05T12:37:53.423Z,17.00
2018-11-05T12:40:22.897Z,16.32
2018-11-05T12:42:51.986Z,16.80
2018-11-05T12:45:20.706Z,18.97
2018-11-05T12:47:49.576Z,16.20
2018-11-05T12:50:21.134Z,17.95
2018-11-05T12:52:51.072Z,17.82
2018-11-05T12:55:19.691Z,16.48
2018-11-05T12:57:48.634Z,16.95
2018-11-05T13:00:20.506Z,15.48
2018-11-05T13:02:54.551Z,17.90
2018-11-05T13:05:23.970Z,17.90
2018-11-05T13:07:52.618Z,16.97
2018-11-05T13:10:21.466Z,16.93
2018-11-05T13:12:50.301Z,16.52
2018-11-05T13:15:19.053Z,16.57
2018-11-05T13:17:47.562Z,16.20
2018-11-05T13:20:18.709Z,16.60
2018-11-05T13:22:47.925Z,16.35
2018-11-05T13:25:16.430Z,17.67
2018-11-05T13:27:46.274Z,16.40
2018-11-05T13:30:15.460Z,17.82
2018-11-05T13:32:44.597Z,16.05
2018-11-05T13:35:15.310Z,16.73
2018-11-05T13:37:44.612Z,17.98
2018-11-05T13:40:15.854Z,16.57
2018-11-05T13:42:45.055Z,17.70
2018-11-05T13:45:14.631Z,17.15
2018-11-05T13:47:44.015Z,16.75
2018-11-05T13:50:12.674Z,18.25
2018-11-05T13:52:41.508Z,18.85
2018-11-05T13:55:12.458Z,19.52
2018-11-05T13:57:42.454Z,17.27
2018-11-05T14:00:13.065Z,19.27
2018-11-05T14:02:41.741Z,19.20
2018-11-05T14:05:10.943Z,19.86
2018-11-05T14:07:39.717Z,19.57
2018-11-05T14:10:12.449Z,20.52
2018-11-05T14:12:42.753Z,20.30
2018-11-05T14:15:11.337Z,20.80
2018-11-05T14:17:40.744Z,20.68
2018-11-05T14:20:10.325Z,21.00
2018-11-05T14:22:39.985Z,22.07
2018-11-05T14:25:10.501Z,21.48
2018-11-05T14:27:39.250Z,22.82
2018-11-05T14:30:09.014Z,21.23
2018-11-05T14:32:38.082Z,21.82
2018-11-05T14:35:06.734Z,21.97
2018-11-05T14:37:35.509Z,22.75
2018-11-05T14:40:04.892Z,22.62
2018-11-05T14:42:33.677Z,24.35
2018-11-05T14:45:02.406Z,25.75
2018-11-05T14:47:30.958Z,25.57
2018-11-05T14:49:59.533Z,25.20
2018-11-05T14:52:28.053Z,25.77
2018-11-05T14:54:56.620Z,27.95
2018-11-05T14:57:25.251Z,30.95
2018-11-05T14:59:54.085Z,30.23
2018-11-05T15:02:27.797Z,28.50
2018-11-05T15:05:05.963Z,29.80
2018-11-05T15:07:34.494Z,31.10
2018-11-05T15:10:03.001Z,28.95
2018-11-05T15:12:31.635Z,30.77
2018-11-05T15:15:00.149Z,28.55
2018-11-05T15:17:29.555Z,28.60
2018-11-05T15:19:58.687Z,28.23
2018-11-05T15:22:27.056Z,27.62
2018-11-05T15:24:56.200Z,28.02
2018-11-05T15:27:25.062Z,26.25
2018-11-05T15:29:54.085Z,26.90
2018-11-05T15:32:22.613Z,24.57
2018-11-05T15:34:51.137Z,25.17
2018-11-05T15:37:19.657Z,26.73
2018-11-05T15:39:48.241Z,30.05
2018-11-05T15:42:16.737Z,30.23
2018-11-05T15:44:45.249Z,27.85
2018-11-05T15:47:14.004Z,27.87
2018-11-05T15:49:42.521Z,28.02
2018-11-05T15:52:11.577Z,29.60
2018-11-05T15:54:40.069Z,26.80
2018-11-05T15:57:09.069Z,26.70
2018-11-05T15:59:38.065Z,26.82
2018-11-05T16:02:11.497Z,27.60
2018-11-05T16:04:41.210Z,27.30
2018-11-05T16:07:09.741Z,27.95
2018-11-05T16:09:39.393Z,27.45
2018-11-05T16:12:08.217Z,29.20
2018-11-05T16:14:37.521Z,26.02
2018-11-05T16:17:06.041Z,27.10
2018-11-05T16:19:34.612Z,27.13
2018-11-05T16:22:03.129Z,27.77
2018-11-05T16:24:31.965Z,28.12
2018-11-05T16:27:00.404Z,28.65
2018-11-05T16:29:29.609Z,29.07
2018-11-05T16:31:58.156Z,28.10
2018-11-05T16:34:26.689Z,30.50
2018-11-05T16:36:55.254Z,32.90
2018-11-05T16:39:23.830Z,31.85
2018-11-05T16:41:52.607Z,31.93
2018-11-05T16:44:21.021Z,33.38
2018-11-05T16:46:49.625Z,33.25
2018-11-05T16:49:18.345Z,34.55
2018-11-05T16:51:46.948Z,35.48
2018-11-05T16:54:15.600Z,35.80
2018-11-05T16:56:44.583Z,35.35
2018-11-05T16:59:13.119Z,34.07
2018-11-05T17:01:42.330Z,36.08
2018-11-05T17:04:10.743Z,34.73
2018-11-05T17:06:39.234Z,37.40
2018-11-05T17:09:09.146Z,36.60
2018-11-05T17:11:41.439Z,37.95
2018-11-05T17:14:10.623Z,37.93
2018-11-05T17:16:39.116Z,39.05
2018-11-05T17:19:07.700Z,37.88
2018-11-05T17:21:36.333Z,39.85
2018-11-05T17:24:05.505Z,38.63
2018-11-05T17:26:34.058Z,38.30
2018-11-05T17:29:02.603Z,38.38
2018-11-05T17:31:31.151Z,38.13
2018-11-05T17:33:59.895Z,37.45
2018-11-05T17:36:28.411Z,37.13
2018-11-05T17:41:40.955Z,39.48
2018-11-05T17:44:14.011Z,39.20
2018-11-05T17:46:42.558Z,37.55
2018-11-05T17:49:12.685Z,36.73
2018-11-05T17:51:41.389Z,39.45
2018-11-05T17:54:10.140Z,37.93
2018-11-05T17:56:38.631Z,38.95
2018-11-05T17:59:07.125Z,37.42
2018-11-05T18:01:35.657Z,37.95
2018-11-05T18:04:05.244Z,40.40
2018-11-05T18:06:33.782Z,37.42
2018-11-05T18:09:02.368Z,37.53
2018-11-05T18:11:30.870Z,37.73
2018-11-05T18:13:59.687Z,36.40
2018-11-05T18:16:28.170Z,35.95
2018-11-05T18:18:56.775Z,36.20
2018-11-05T18:21:25.355Z,34.95
2018-11-05T18:23:53.862Z,34.25
2018-11-05T18:26:22.355Z,36.13
2018-11-05T18:28:51.095Z,33.85
2018-11-05T18:31:19.744Z,35.00
2018-11-05T18:33:48.515Z,34.65
2018-11-05T18:36:16.995Z,35.10
2018-11-05T18:38:45.782Z,35.35
2018-11-05T18:41:14.286Z,37.00
2018-11-05T18:43:43.027Z,34.98
2018-11-05T18:46:11.806Z,34.23
2018-11-05T18:48:40.286Z,35.10
2018-11-05T18:51:09.037Z,32.90
2018-11-05T18:53:37.626Z,32.75
2018-11-05T18:56:06.593Z,35.80
2018-11-05T18:58:35.106Z,33.90
2018-11-05T19:01:04.562Z,35.15
2018-11-05T19:03:33.150Z,34.80
2018-11-05T19:06:01.613Z,34.98
2018-11-05T19:08:30.085Z,34.38
2018-11-05T19:10:58.601Z,34.23
2018-11-05T19:13:27.222Z,33.35
2018-11-05T19:15:55.738Z,34.90
2018-11-05T19:18:24.533Z,35.33
2018-11-05T19:20:53.700Z,34.88
2018-11-05T19:23:23.909Z,33.10
2018-11-05T19:28:44.386Z,33.18
2018-11-05T19:31:13.133Z,35.43
2018-11-05T19:33:42.446Z,34.55
2018-11-05T19:36:11.405Z,34.63
2018-11-05T19:38:40.339Z,35.38
2018-11-05T19:41:08.906Z,32.75
2018-11-05T19:46:57.565Z,34.27
2018-11-05T19:49:26.183Z,32.65
2018-11-05T19:51:54.814Z,37.33
2018-11-05T19:54:23.546Z,34.03
2018-11-05T19:56:52.042Z,33.00
2018-11-05T19:59:20.858Z,31.93
2018-11-05T20:01:49.334Z,34.48
2018-11-05T20:04:18.048Z,33.02
2018-11-05T20:06:46.666Z,33.58
2018-11-05T20:09:15.174Z,34.60
2018-11-05T20:11:43.730Z,34.65
2018-11-05T20:14:12.643Z,33.70
2018-11-05T20:16:41.339Z,34.98
2018-11-05T20:19:10.452Z,33.40
2018-11-05T20:22:33.861Z,34.47
2018-11-05T20:25:06.593Z,35.00
2018-11-05T20:27:35.488Z,34.83
2018-11-05T20:30:04.645Z,36.65
2018-11-05T20:32:33.998Z,35.13
2018-11-05T20:35:01.958Z,33.42
2018-11-05T20:37:30.568Z,35.83
2018-11-05T20:39:59.412Z,35.25
2018-11-05T20:42:27.833Z,36.10
2018-11-05T20:44:56.332Z,37.05
2018-11-05T20:47:24.871Z,36.28
2018-11-05T20:49:53.692Z,34.30
2018-11-05T20:52:22.183Z,35.97
2018-11-05T20:54:50.693Z,36.28
2018-11-05T20:57:19.305Z,36.40
2018-11-05T20:59:47.972Z,38.60
2018-11-05T21:02:16.924Z,35.85
2018-11-05T21:04:51.796Z,38.78
2018-11-05T21:07:20.940Z,38.58
2018-11-05T21:09:49.620Z,37.95
2018-11-05T21:12:18.196Z,40.05
2018-11-05T21:14:46.768Z,35.95
2018-11-05T21:17:15.352Z,36.17
2018-11-05T21:19:43.892Z,37.40
2018-11-05T21:22:13.586Z,37.80
2018-11-05T21:24:42.128Z,37.98
2018-11-05T21:27:10.672Z,38.73
2018-11-05T21:29:39.356Z,38.30
2018-11-05T21:32:07.891Z,39.35
2018-11-05T21:34:36.868Z,37.20
2018-11-05T21:37:05.940Z,38.15
2018-11-05T21:39:34.476Z,38.48
2018-11-05T21:42:03.271Z,39.27
2018-11-05T21:44:31.919Z,38.08
2018-11-05T21:47:00.609Z,42.23
2018-11-05T21:49:29.600Z,39.48
2018-11-05T21:51:58.147Z,40.30
2018-11-05T21:54:27.082Z,40.00
2018-11-05T21:56:56.111Z,40.78
2018-11-05T22:02:10.475Z,40.35
2018-11-05T22:04:39.166Z,39.67
2018-11-05T22:07:07.718Z,40.40
2018-11-05T22:09:36.290Z,39.18
2018-11-05T22:12:05.179Z,39.08
2018-11-05T22:14:33.687Z,40.40
2018-11-05T22:17:02.659Z,42.78
2018-11-05T22:20:34.051Z,42.30
2018-11-05T22:23:02.571Z,42.27
2018-11-05T22:25:33.379Z,44.33
2018-11-05T22:28:01.960Z,41.88
2018-11-05T22:30:30.547Z,44.20
2018-11-05T22:32:59.396Z,44.05
2018-11-05T22:35:28.367Z,42.40
2018-11-05T22:37:56.914Z,43.77
2018-11-05T22:40:25.852Z,42.80
2018-11-05T22:42:54.695Z,45.88
2018-11-05T22:45:23.714Z,45.05
2018-11-05T22:47:52.291Z,45.65
2018-11-05T22:50:21.888Z,43.10
2018-11-05T22:52:50.714Z,44.73
2018-11-05T22:55:19.227Z,47.00
2018-11-05T22:57:47.950Z,47.05
2018-11-05T23:00:22.691Z,45.67
2018-11-05T23:02:56.694Z,47.23
2018-11-05T23:05:26.510Z,48.10
2018-11-05T23:07:56.146Z,49.40
2018-11-05T23:10:56.061Z,52.93
2018-11-05T23:13:24.570Z,50.17
2018-11-05T23:15:53.161Z,48.55
2018-11-05T23:18:21.678Z,50.47
2018-11-05T23:20:52.558Z,49.93
2018-11-05T23:23:21.094Z,49.85
2018-11-05T23:25:49.882Z,49.83
2018-11-05T23:28:18.614Z,51.68
2018-11-05T23:30:47.194Z,49.75
2018-11-05T23:33:16.084Z,51.13
2018-11-05T23:35:44.595Z,51.20
2018-11-05T23:38:13.654Z,51.00
2018-11-05T23:40:42.545Z,51.63
2018-11-05T23:43:11.502Z,53.50
2018-11-05T23:45:40.294Z,53.05
2018-11-05T23:48:08.894Z,53.83
2018-11-05T23:50:37.410Z,53.48
2018-11-05T23:53:06.518Z,51.92
2018-11-05T23:55:35.014Z,51.00
2018-11-05T23:58:03.873Z,52.33
